Time;durP1;ratioP1;P1;durP2;ratioP2;P2;SDS_P1;SDS_P2;PMS_P1;PMS_P2;Temp;Humidity;BMP_temperature;BMP_pressure;BME280_temperature;BME280_humidity;BME280_pressure;Samples;Min_cycle;Max_cycle;Signal;HPM_P1;HPM_P2
2022/08/16 00:00:38;;;;;;;;;27.50;24.50;;;;;22.89;56.57;100460.84;5076317;27;46004;-77
2022/08/16 00:03:04;;;;;;;;;34.00;28.00;;;;;22.86;56.41;100453.13;5077555;27;45457;-77
2022/08/16 00:05:30;;;;;;;;;29.75;26.75;;;;;22.85;56.01;100466.56;5077736;27;45341;-77
2022/08/16 00:07:57;;;;;;;;;31.50;27.00;;;;;22.80;56.95;100469.59;5076075;27;46206;-78
2022/08/16 00:10:24;;;;;;;;;31.25;27.75;;;;;22.76;56.53;100461.03;5077170;27;45778;-78
2022/08/16 00:12:50;;;;;;;;;29.75;27.75;;;;;22.72;56.72;100467.59;5077571;27;45262;-78
2022/08/16 00:15:20;;;;;;;;;36.50;29.00;;;;;22.70;56.87;100479.31;5076172;28;45402;-77
2022/08/16 00:17:46;;;;;;;;;30.00;28.00;;;;;22.63;56.71;100471.00;5077341;27;45614;-78
2022/08/16 00:20:12;;;;;;;;;33.25;27.75;;;;;22.64;57.32;100475.38;5077333;27;45494;-78
2022/08/16 00:22:39;;;;;;;;;34.25;30.50;;;;;22.60;57.14;100474.78;5076276;28;45372;-78
2022/08/16 00:25:07;;;;;;;;;33.75;27.50;;;;;22.58;57.36;100479.38;5058640;28;45314;-77
2022/08/16 00:27:33;;;;;;;;;32.00;29.25;;;;;22.57;57.33;100487.44;5077061;27;46529;-78
2022/08/16 00:29:58;;;;;;;;;31.50;27.00;;;;;22.55;57.47;100479.63;5077190;27;45346;-77
2022/08/16 00:32:24;;;;;;;;;34.50;29.50;;;;;22.54;57.54;100480.56;5076015;28;67511;-77
2022/08/16 00:34:49;;;;;;;;;41.00;31.75;;;;;22.55;57.34;100484.09;5075810;28;45389;-78
2022/08/16 00:37:15;;;;;;;;;32.50;29.50;;;;;22.51;57.33;100480.84;5076108;28;70591;-77
2022/08/16 00:39:41;;;;;;;;;32.00;26.50;;;;;22.55;57.34;100486.75;5076636;27;45880;-78
2022/08/16 00:42:06;;;;;;;;;31.25;27.50;;;;;22.61;57.20;100484.41;5076894;28;45327;-77
2022/08/16 00:44:33;;;;;;;;;29.25;28.00;;;;;22.69;56.95;100485.56;5075666;27;45294;-77
2022/08/16 00:47:04;;;;;;;;;30.50;26.75;;;;;22.69;57.97;100473.13;5075480;28;47195;-77
2022/08/16 00:49:30;;;;;;;;;37.75;31.25;;;;;22.72;57.04;100477.38;5076845;27;45951;-77
2022/08/16 00:51:56;;;;;;;;;33.50;28.75;;;;;22.77;57.01;100485.75;5076881;27;45390;-78
2022/08/16 00:54:24;;;;;;;;;28.75;26.75;;;;;22.76;57.64;100479.63;5075236;27;70397;-77
2022/08/16 00:56:50;;;;;;;;;35.25;30.00;;;;;22.79;56.95;100478.53;5075518;27;46771;-77
2022/08/16 00:59:19;;;;;;;;;31.50;27.75;;;;;22.85;56.96;100475.34;5057468;27;72239;-77
2022/08/16 01:01:44;;;;;;;;;28.00;27.25;;;;;22.85;57.66;100462.09;5075563;28;45297;-77
2022/08/16 01:04:10;;;;;;;;;29.00;26.00;;;;;22.87;57.72;100472.56;5076336;27;45424;-77
2022/08/16 01:06:37;;;;;;;;;27.75;27.50;;;;;22.85;57.60;100458.59;5076446;27;46518;-77
2022/08/16 01:09:05;;;;;;;;;31.75;30.25;;;;;22.88;57.36;100461.84;5075831;27;45527;-77
2022/08/16 01:11:32;;;;;;;;;34.25;29.50;;;;;22.88;57.69;100453.00;5076431;27;45419;-77
2022/08/16 01:14:03;;;;;;;;;39.00;28.50;;;;;22.88;57.73;100463.63;5058323;28;45521;-77
2022/08/16 01:16:29;;;;;;;;;29.50;26.25;;;;;22.85;57.52;100456.78;5074961;28;46689;-77
2022/08/16 01:19:03;;;;;;;;;27.25;26.25;;;;;22.84;57.76;100447.13;5075301;28;45505;-78
2022/08/16 01:21:52;;;;;;;;;29.50;26.50;;;;;22.86;57.53;100450.47;5076482;27;45316;-77
2022/08/16 01:24:35;;;;;;;;;30.25;27.50;;;;;22.83;57.35;100450.75;5076081;27;45447;-77
2022/08/16 01:27:05;;;;;;;;;32.50;26.50;;;;;22.83;57.97;100458.72;5074964;28;45373;-77
2022/08/16 01:29:36;;;;;;;;;28.50;25.00;;;;;22.82;56.89;100454.38;5074936;28;45349;-77
2022/08/16 01:32:01;;;;;;;;;29.25;26.25;;;;;22.85;57.56;100447.97;5074978;27;45398;-77
2022/08/16 01:34:27;;;;;;;;;31.50;27.50;;;;;22.88;57.51;100451.22;5076318;27;45463;-77
2022/08/16 01:37:03;;;;;;;;;32.50;28.50;;;;;22.87;56.93;100457.47;5075787;27;45980;-77
2022/08/16 01:39:28;;;;;;;;;31.75;28.00;;;;;22.88;58.03;100463.63;5074829;27;45872;-77
2022/08/16 01:41:54;;;;;;;;;27.50;23.50;;;;;22.87;57.15;100467.28;5074218;28;62117;-77
2022/08/16 01:44:19;;;;;;;;;27.75;26.00;;;;;22.88;56.93;100468.94;5074989;28;69082;-77
2022/08/16 01:46:46;;;;;;;;;33.00;28.75;;;;;22.90;56.22;100472.28;5073610;28;73180;-77
2022/08/16 01:49:21;;;;;;;;;28.25;27.25;;;;;22.86;55.80;100465.56;5076052;27;45999;-77
2022/08/16 01:51:53;;;;;;;;;33.25;29.25;;;;;22.84;56.29;100464.88;5075954;27;45238;-77
2022/08/16 01:54:19;;;;;;;;;31.50;28.00;;;;;22.82;55.78;100462.34;5074405;28;45547;-77
2022/08/16 01:56:44;;;;;;;;;30.75;28.50;;;;;22.80;56.19;100459.81;5074748;27;45932;-78
2022/08/16 01:59:12;;;;;;;;;33.75;27.25;;;;;22.83;56.32;100473.81;5074703;28;73300;-77
2022/08/16 02:01:37;;;;;;;;;27.25;25.25;;;;;22.84;56.50;100470.16;5075837;27;45365;-78
2022/08/16 02:04:03;;;;;;;;;27.00;24.00;;;;;22.89;55.91;100466.16;5075733;28;45319;-78
2022/08/16 02:06:28;;;;;;;;;29.50;25.25;;;;;22.88;56.05;100451.22;5075270;27;46495;-77
2022/08/16 02:08:54;;;;;;;;;29.25;25.25;;;;;22.91;55.90;100450.09;5075013;28;72431;-77
2022/08/16 02:11:21;;;;;;;;;28.50;25.75;;;;;22.90;56.34;100445.75;5076113;27;45408;-77
2022/08/16 02:13:46;;;;;;;;;29.25;26.50;;;;;22.86;56.88;100453.13;5075687;27;45429;-77
2022/08/16 02:16:12;;;;;;;;;28.50;24.00;;;;;22.82;57.12;100451.72;5075639;28;45353;-78
2022/08/16 02:18:37;;;;;;;;;37.00;26.75;;;;;22.76;57.21;100450.44;5075411;28;48024;-77
2022/08/16 02:21:04;;;;;;;;;29.25;27.00;;;;;22.74;57.26;100460.34;5075456;27;45416;-77
2022/08/16 02:23:31;;;;;;;;;27.50;26.50;;;;;22.74;57.55;100462.16;5078065;27;45296;-77
2022/08/16 02:25:56;;;;;;;;;25.25;23.25;;;;;22.75;57.42;100456.72;5077609;28;45762;-77
2022/08/16 02:28:23;;;;;;;;;26.75;25.75;;;;;22.78;56.89;100453.78;5078996;28;45271;-77
2022/08/16 02:30:48;;;;;;;;;26.25;24.75;;;;;22.83;57.74;100441.97;5079094;27;45330;-78
2022/08/16 02:33:13;;;;;;;;;31.50;28.25;;;;;22.81;57.75;100434.13;5076746;28;65989;-77
2022/08/16 02:35:39;;;;;;;;;31.25;26.75;;;;;22.80;57.34;100440.41;5077335;27;74469;-78
2022/08/16 02:38:05;;;;;;;;;32.25;27.50;;;;;22.75;57.31;100434.63;5060636;27;45419;-77
2022/08/16 02:40:31;;;;;;;;;28.25;25.00;;;;;22.80;57.12;100435.94;5079002;27;45358;-77
2022/08/16 02:42:57;;;;;;;;;26.75;25.00;;;;;22.83;57.20;100429.53;5077759;27;45373;-77
2022/08/16 02:45:26;;;;;;;;;34.25;26.25;;;;;22.84;57.62;100417.94;5077262;27;47029;-77
2022/08/16 02:47:52;;;;;;;;;26.25;25.25;;;;;22.81;57.18;100410.25;5078785;27;45372;-77
2022/08/16 02:50:17;;;;;;;;;28.50;26.75;;;;;22.84;57.56;100415.28;5078631;27;45373;-77
2022/08/16 02:52:43;;;;;;;;;31.50;27.50;;;;;22.86;57.66;100415.16;5077950;27;60760;-77
2022/08/16 02:55:08;;;;;;;;;26.00;23.25;;;;;22.84;57.21;100411.78;5077382;28;75411;-78
2022/08/16 02:57:34;;;;;;;;;31.50;26.00;;;;;22.85;57.29;100416.13;5077302;27;45502;-78
2022/08/16 03:00:00;;;;;;;;;27.00;26.75;;;;;22.82;56.86;100401.31;5076791;28;57881;-77
2022/08/16 03:02:26;;;;;;;;;28.75;26.75;;;;;22.86;57.24;100394.75;5078679;27;45504;-78
2022/08/16 03:04:52;;;;;;;;;31.25;29.00;;;;;22.88;57.00;100384.88;5076711;28;47222;-78
2022/08/16 03:07:18;;;;;;;;;31.75;29.75;;;;;22.89;56.40;100380.41;5078522;27;45395;-77
2022/08/16 03:09:44;;;;;;;;;31.00;29.00;;;;;22.85;56.44;100374.50;5077405;27;45382;-77
2022/08/16 03:12:10;;;;;;;;;35.75;31.75;;;;;22.87;56.30;100385.84;5077637;28;69572;-77
2022/08/16 03:14:36;;;;;;;;;33.75;29.50;;;;;22.84;57.03;100402.00;5077777;27;56198;-78
2022/08/16 03:17:01;;;;;;;;;32.75;29.00;;;;;22.80;56.54;100405.91;5077252;27;71665;-78
2022/08/16 03:19:29;;;;;;;;;32.50;27.25;;;;;22.75;57.20;100402.81;5059839;28;45330;-78
2022/08/16 03:21:54;;;;;;;;;32.75;28.00;;;;;22.78;56.79;100411.34;5077086;27;45355;-78
2022/08/16 03:24:20;;;;;;;;;32.50;29.25;;;;;22.77;56.92;100419.44;5077891;27;46412;-77
2022/08/16 03:26:45;;;;;;;;;32.00;27.75;;;;;22.73;56.77;100426.84;5076500;27;59649;-78
2022/08/16 03:29:10;;;;;;;;;32.75;26.25;;;;;22.71;57.29;100422.59;5077508;28;60522;-77
2022/08/16 03:31:36;;;;;;;;;35.25;32.00;;;;;22.71;57.09;100419.97;5078180;27;45417;-78
2022/08/16 03:34:01;;;;;;;;;30.50;27.75;;;;;22.71;57.33;100423.44;5077025;27;46684;-77
2022/08/16 03:36:27;;;;;;;;;29.50;27.25;;;;;22.73;56.96;100428.63;5076806;28;73076;-77
2022/08/16 03:38:52;;;;;;;;;29.00;27.00;;;;;22.76;56.88;100431.84;5078246;27;45426;-77
2022/08/16 03:41:18;;;;;;;;;27.00;23.50;;;;;22.75;56.92;100430.19;5076451;28;48936;-78
2022/08/16 03:43:43;;;;;;;;;31.50;28.50;;;;;22.78;57.21;100427.25;5077739;27;45924;-77
2022/08/16 03:46:09;;;;;;;;;28.00;26.75;;;;;22.72;57.79;100432.25;5077757;28;46014;-77
2022/08/16 03:48:36;;;;;;;;;35.75;30.00;;;;;22.61;57.64;100423.38;5077651;27;45541;-77
2022/08/16 03:51:03;;;;;;;;;29.50;29.25;;;;;22.56;58.10;100424.75;5078062;27;45371;-77
2022/08/16 03:53:29;;;;;;;;;32.25;27.25;;;;;22.53;57.46;100417.91;5077483;27;46027;-78
2022/08/16 03:55:54;;;;;;;;;29.75;26.00;;;;;22.58;57.82;100421.03;5077652;27;46492;-77
2022/08/16 03:58:20;;;;;;;;;29.00;26.75;;;;;22.57;58.11;100419.31;5076732;28;45433;-77
2022/08/16 04:00:47;;;;;;;;;27.50;25.00;;;;;22.55;58.60;100412.47;5076684;27;45476;-78
2022/08/16 04:03:12;;;;;;;;;30.25;27.25;;;;;22.53;58.77;100409.94;5077300;27;47417;-77
2022/08/16 04:05:41;;;;;;;;;32.50;29.75;;;;;22.50;58.83;100410.19;5076146;27;45462;-77
2022/08/16 04:08:07;;;;;;;;;30.75;28.00;;;;;22.47;58.54;100428.19;5077763;27;45242;-77
2022/08/16 04:10:32;;;;;;;;;31.50;30.25;;;;;22.41;58.16;100435.66;5077731;28;45327;-77
2022/08/16 04:12:58;;;;;;;;;32.00;28.00;;;;;22.39;58.51;100442.09;5076182;28;45411;-77
2022/08/16 04:15:24;;;;;;;;;30.50;28.00;;;;;22.38;58.57;100437.72;5077481;27;45355;-77
2022/08/16 04:17:51;;;;;;;;;35.50;30.00;;;;;22.35;58.29;100438.84;5075959;28;45401;-77
2022/08/16 04:20:16;;;;;;;;;29.00;27.50;;;;;22.36;58.24;100426.41;5077456;27;45479;-77
2022/08/16 04:22:42;;;;;;;;;30.25;27.00;;;;;22.39;57.97;100440.25;5077244;28;47093;-77
2022/08/16 04:25:09;;;;;;;;;30.50;28.00;;;;;22.41;58.99;100440.97;5076092;27;45374;-77
2022/08/16 04:27:34;;;;;;;;;31.75;29.25;;;;;22.37;58.16;100438.72;5077426;27;45416;-78
2022/08/16 04:30:00;;;;;;;;;38.00;30.50;;;;;22.34;58.24;100434.53;5076905;27;54809;-77
2022/08/16 04:32:25;;;;;;;;;32.50;28.00;;;;;22.28;58.47;100432.38;5076572;27;45401;-78
2022/08/16 04:34:50;;;;;;;;;28.50;26.75;;;;;22.30;58.50;100438.38;5074854;28;73319;-78
2022/08/16 04:37:16;;;;;;;;;33.50;30.25;;;;;22.24;58.71;100430.91;5075105;28;65906;-77
2022/08/16 04:39:41;;;;;;;;;38.50;31.00;;;;;22.27;58.79;100441.31;5075975;28;45522;-77
2022/08/16 04:42:07;;;;;;;;;31.75;28.00;;;;;22.29;58.96;100441.16;5077099;27;46492;-77
2022/08/16 04:44:32;;;;;;;;;38.75;29.25;;;;;22.29;59.09;100439.38;5075670;27;45370;-77
2022/08/16 04:46:57;;;;;;;;;33.25;29.75;;;;;22.29;59.55;100435.84;5075696;28;68647;-77
2022/08/16 04:49:23;;;;;;;;;34.25;32.00;;;;;22.27;59.17;100433.34;5075874;28;45468;-77
2022/08/16 04:51:49;;;;;;;;;35.50;31.00;;;;;22.28;59.27;100429.72;5076850;27;46883;-77
2022/08/16 04:54:14;;;;;;;;;39.00;32.00;;;;;22.32;59.09;100432.94;5074842;27;63156;-77
2022/08/16 04:56:40;;;;;;;;;34.75;31.00;;;;;22.35;59.89;100436.19;5075802;27;68000;-77
2022/08/16 04:59:07;;;;;;;;;33.00;29.50;;;;;22.36;59.96;100440.53;5076139;27;59726;-76
2022/08/16 05:01:33;;;;;;;;;37.25;32.25;;;;;22.37;59.78;100447.50;5075085;28;47025;-77
2022/08/16 05:03:58;;;;;;;;;36.25;31.25;;;;;22.34;59.82;100438.97;5076487;27;45460;-76
2022/08/16 05:06:23;;;;;;;;;31.75;30.50;;;;;22.35;59.81;100445.97;5076629;27;45511;-76
2022/08/16 05:08:49;;;;;;;;;32.75;30.50;;;;;22.32;59.60;100443.56;5075901;28;58393;-76
2022/08/16 05:11:15;;;;;;;;;36.00;30.00;;;;;22.38;59.27;100449.22;5075839;28;61494;-76
2022/08/16 05:13:43;;;;;;;;;37.75;30.00;;;;;22.39;59.60;100447.38;5076573;27;45450;-77
2022/08/16 05:16:26;;;;;;;;;34.00;31.50;;;;;22.36;59.62;100452.94;5076255;27;45293;-77
2022/08/16 05:18:53;;;;;;;;;37.25;32.25;;;;;22.39;59.53;100465.94;5076680;27;45338;-77
2022/08/16 05:21:20;;;;;;;;;36.00;32.00;;;;;22.36;59.70;100471.50;5076204;27;46404;-77
2022/08/16 05:23:45;;;;;;;;;32.00;28.00;;;;;22.41;59.50;100478.09;5075089;27;45580;-77
2022/08/16 05:26:10;;;;;;;;;31.50;29.25;;;;;22.45;59.55;100476.03;5075346;27;69046;-78
2022/08/16 05:28:36;;;;;;;;;33.75;28.75;;;;;22.52;60.00;100481.69;5075777;28;45669;-77
2022/08/16 05:31:01;;;;;;;;;36.25;32.50;;;;;22.51;59.81;100483.50;5075005;28;74396;-77
2022/08/16 05:33:26;;;;;;;;;30.00;28.75;;;;;22.49;59.30;100477.50;5075152;27;69452;-77
2022/08/16 05:35:52;;;;;;;;;32.25;28.25;;;;;22.49;59.66;100481.94;5076100;28;45375;-77
2022/08/16 05:38:17;;;;;;;;;31.25;27.75;;;;;22.53;59.65;100480.69;5075359;27;66297;-78
2022/08/16 05:40:43;;;;;;;;;28.75;27.00;;;;;22.55;59.32;100487.56;5075108;27;66167;-77
2022/08/16 05:43:08;;;;;;;;;33.00;29.75;;;;;22.54;59.21;100474.44;5075709;27;45418;-77
2022/08/16 05:45:33;;;;;;;;;31.75;28.00;;;;;22.59;58.88;100477.56;5075009;28;45771;-78
2022/08/16 05:47:59;;;;;;;;;27.75;26.25;;;;;22.62;58.90;100474.63;5075983;27;45442;-77
2022/08/16 05:50:25;;;;;;;;;28.75;27.25;;;;;22.69;59.18;100485.56;5075768;27;46607;-77
2022/08/16 05:52:50;;;;;;;;;27.00;23.25;;;;;22.73;59.40;100487.84;5073325;28;71640;-77
2022/08/16 05:55:16;;;;;;;;;27.50;26.25;;;;;22.79;60.02;100489.97;5075152;28;55221;-77
2022/08/16 05:57:43;;;;;;;;;28.00;24.00;;;;;22.81;58.82;100487.19;5074565;28;45420;-77
2022/08/16 06:00:10;;;;;;;;;25.25;22.75;;;;;22.92;59.25;100503.06;5074408;28;47393;-77
2022/08/16 06:02:36;;;;;;;;;28.50;24.00;;;;;;;;5075757;28;45414;-77
2022/08/16 06:05:03;;;;;;;;;24.00;22.25;;;;;23.03;58.59;100509.25;5075930;27;45308;-77
2022/08/16 06:07:29;;;;;;;;;26.50;22.75;;;;;23.10;58.20;100503.31;5075817;27;45303;-77
2022/08/16 06:09:58;;;;;;;;;24.75;20.00;;;;;23.17;57.59;100512.44;5075675;28;50045;-77
2022/08/16 06:12:24;;;;;;;;;22.50;20.00;;;;;23.25;57.25;100510.94;5075369;27;45825;-77
2022/08/16 06:14:49;;;;;;;;;23.50;21.50;;;;;23.31;58.76;100507.75;5074716;27;45266;-77
2022/08/16 06:17:15;;;;;;;;;21.75;19.75;;;;;23.35;58.35;100507.38;5074663;28;70445;-77
2022/08/16 06:19:41;;;;;;;;;26.50;21.00;;;;;23.41;57.91;100511.31;5075534;27;45842;-77
2022/08/16 06:22:07;;;;;;;;;20.75;18.50;;;;;23.45;58.01;100509.22;5075602;27;45347;-77
2022/08/16 06:24:32;;;;;;;;;25.00;25.00;;;;;23.51;57.59;100509.53;5074517;27;69236;-78
2022/08/16 06:26:57;;;;;;;;;23.75;20.75;;;;;23.60;57.80;100507.88;5074439;28;65288;-77
2022/08/16 06:29:24;;;;;;;;;22.50;21.75;;;;;23.64;56.45;100505.78;5074151;28;45368;-77
2022/08/16 06:31:49;;;;;;;;;19.75;15.00;;;;;23.66;55.69;100503.84;5074038;28;45892;-77
2022/08/16 06:34:14;;;;;;;;;23.25;19.00;;;;;23.71;55.78;100513.09;5074505;28;64044;-77
2022/08/16 06:36:41;;;;;;;;;24.50;21.00;;;;;23.75;55.42;100517.19;5074808;27;59517;-77
2022/08/16 06:39:06;;;;;;;;;26.75;21.00;;;;;23.73;56.08;100508.47;5075176;27;47444;-77
2022/08/16 06:41:32;;;;;;;;;17.75;17.50;;;;;23.75;55.07;100508.34;5074349;27;64899;-77
2022/08/16 06:43:57;;;;;;;;;21.50;15.75;;;;;23.77;55.06;100514.38;5075545;27;45506;-77
2022/08/16 06:46:26;;;;;;;;;19.75;17.00;;;;;23.81;55.16;100515.84;5074307;28;70306;-77
2022/08/16 06:48:52;;;;;;;;;21.50;17.25;;;;;23.86;55.06;100516.25;5074099;28;45519;-77
2022/08/16 06:51:17;;;;;;;;;22.25;18.75;;;;;23.86;54.62;100510.09;5074037;28;45500;-77
2022/08/16 06:53:42;;;;;;;;;20.50;17.50;;;;;23.88;54.32;100510.78;5074248;28;61587;-78
2022/08/16 06:56:08;;;;;;;;;18.75;18.00;;;;;23.90;54.57;100514.16;5073650;27;45497;-77
2022/08/16 06:58:34;;;;;;;;;20.00;16.00;;;;;23.90;54.31;100504.38;5075097;27;45343;-77
2022/08/16 07:01:00;;;;;;;;;16.50;15.00;;;;;23.91;53.88;100514.03;5074206;28;69406;-77
2022/08/16 07:03:27;;;;;;;;;20.75;16.00;;;;;23.91;53.88;100519.34;5075247;28;45300;-77
2022/08/16 07:05:52;;;;;;;;;20.50;17.00;;;;;23.87;54.07;100522.41;5074991;27;45166;-77
2022/08/16 07:08:17;;;;;;;;;19.50;16.00;;;;;23.86;54.12;100518.06;5075404;28;75420;-77
2022/08/16 07:10:43;;;;;;;;;19.75;15.75;;;;;23.89;54.33;100508.00;5077564;28;56149;-77
2022/08/16 07:13:08;;;;;;;;;21.25;18.00;;;;;23.95;53.64;100519.91;5077441;27;69183;-77
2022/08/16 07:15:33;;;;;;;;;13.50;12.25;;;;;23.94;53.42;100521.75;5078738;27;45459;-77
2022/08/16 07:18:00;;;;;;;;;18.50;17.00;;;;;23.90;53.20;100515.03;5076265;27;66035;-77
2022/08/16 07:20:27;;;;;;;;;19.25;17.00;;;;;23.90;53.29;100520.34;5076985;28;45229;-77
2022/08/16 07:22:56;;;;;;;;;17.00;14.75;;;;;23.86;53.20;100523.38;5076963;27;45383;-77
2022/08/16 07:25:21;;;;;;;;;14.00;14.00;;;;;23.82;53.19;100525.47;5078333;27;45498;-77
2022/08/16 07:27:46;;;;;;;;;16.25;14.25;;;;;23.82;53.18;100521.97;5077049;28;46476;-77
2022/08/16 07:30:13;;;;;;;;;17.25;14.75;;;;;23.84;53.06;100522.69;5076364;28;58959;-77
2022/08/16 07:32:38;;;;;;;;;10.25;10.25;;;;;23.83;52.54;100526.31;5077012;27;45371;-77
2022/08/16 07:35:05;;;;;;;;;18.00;15.00;;;;;23.82;52.75;100525.47;5077933;27;45458;-77
2022/08/16 07:37:30;;;;;;;;;16.25;14.00;;;;;23.81;52.90;100528.25;5078115;27;46578;-77
2022/08/16 07:39:55;;;;;;;;;13.75;13.50;;;;;23.81;52.84;100533.56;5075512;27;72016;-77
2022/08/16 07:42:21;;;;;;;;;17.00;14.25;;;;;23.86;52.75;100528.69;5076755;28;69466;-77
2022/08/16 07:44:47;;;;;;;;;17.25;15.00;;;;;23.96;53.13;100535.72;5077990;27;45301;-77
2022/08/16 07:47:13;;;;;;;;;17.50;14.00;;;;;24.01;52.09;100531.81;5076619;27;46204;-77
2022/08/16 07:49:38;;;;;;;;;14.50;11.75;;;;;24.01;51.92;100534.47;5076568;28;45419;-77
2022/08/16 07:52:03;;;;;;;;;15.00;14.00;;;;;24.01;52.23;100534.47;5077015;28;66503;-77
2022/08/16 07:54:29;;;;;;;;;16.75;12.00;;;;;24.01;52.18;100529.16;5076229;27;68388;-77
2022/08/16 07:56:54;;;;;;;;;19.50;13.00;;;;;23.99;51.77;100534.59;5077637;27;53890;-77
2022/08/16 07:59:19;;;;;;;;;16.00;14.50;;;;;23.99;51.85;100528.44;5059726;28;45309;-77
2022/08/16 08:01:45;;;;;;;;;17.25;15.00;;;;;24.06;51.57;100537.56;5075825;27;59015;-77
2022/08/16 08:04:12;;;;;;;;;12.00;11.75;;;;;24.08;51.22;100533.78;5077822;28;45312;-77
2022/08/16 08:06:38;;;;;;;;;15.50;14.50;;;;;24.18;51.10;100535.63;5076090;28;47343;-77
2022/08/16 08:09:03;;;;;;;;;13.00;13.00;;;;;24.26;51.02;100541.13;5076024;28;45276;-77
2022/08/16 08:11:29;;;;;;;;;12.75;12.50;;;;;24.32;51.09;100535.22;5076482;27;45188;-77
2022/08/16 08:13:59;;;;;;;;;15.25;13.25;;;;;24.43;50.93;100543.06;5077447;27;45590;-77
2022/08/16 08:16:24;;;;;;;;;15.00;14.00;;;;;24.43;50.66;100535.09;5077300;27;46318;-77
2022/08/16 08:18:49;;;;;;;;;16.75;14.50;;;;;24.49;50.74;100541.69;5077203;28;45355;-77
2022/08/16 08:21:18;;;;;;;;;15.25;14.00;;;;;24.53;50.30;100540.44;5076502;28;66290;-77
2022/08/16 08:23:44;;;;;;;;;15.75;13.00;;;;;24.61;50.36;100539.75;5077396;27;45391;-76
2022/08/16 08:26:09;;;;;;;;;14.75;12.00;;;;;24.74;49.96;100542.97;5075946;28;47239;-77
2022/08/16 08:28:34;;;;;;;;;15.50;13.75;;;;;24.86;49.90;100541.00;5076220;27;73211;-77
2022/08/16 08:31:01;;;;;;;;;16.75;13.50;;;;;25.03;48.79;100536.75;5076382;28;67025;-77
2022/08/16 08:33:27;;;;;;;;;13.75;13.75;;;;;25.18;48.95;100535.31;5076005;27;45349;-77
2022/08/16 08:35:55;;;;;;;;;13.00;11.00;;;;;25.24;48.11;100539.25;5076925;27;45552;-77
2022/08/16 08:38:22;;;;;;;;;13.00;11.50;;;;;25.25;48.91;100543.63;5075378;28;45330;-77
2022/08/16 08:40:47;;;;;;;;;13.75;9.00;;;;;25.30;48.29;100538.72;5077244;27;45315;-77
2022/08/16 08:43:12;;;;;;;;;13.25;13.00;;;;;25.34;48.01;100540.09;5077050;27;45324;-77
2022/08/16 08:45:39;;;;;;;;;13.25;12.00;;;;;25.39;48.77;100536.97;5076629;27;45662;-77
2022/08/16 08:48:05;;;;;;;;;12.25;11.25;;;;;25.45;47.76;100544.41;5076940;27;45215;-78
2022/08/16 08:50:31;;;;;;;;;13.50;12.25;;;;;25.49;47.88;100545.78;5075679;28;45458;-77
2022/08/16 08:52:56;;;;;;;;;14.75;12.25;;;;;25.53;47.61;100551.66;5076477;28;45553;-77
2022/08/16 08:55:22;;;;;;;;;12.50;12.50;;;;;25.56;47.80;100546.06;5076727;28;46127;-77
2022/08/16 08:57:48;;;;;;;;;13.75;13.75;;;;;25.63;48.14;100545.31;5076799;28;45474;-77
2022/08/16 09:00:16;;;;;;;;;11.50;10.50;;;;;25.77;48.40;100548.47;5075849;28;45361;-77
2022/08/16 09:02:42;;;;;;;;;18.00;13.50;;;;;25.85;48.19;100544.09;5077134;27;45263;-77
2022/08/16 09:05:08;;;;;;;;;12.50;10.00;;;;;25.97;48.40;100551.91;5076452;28;46130;-77
2022/08/16 09:07:33;;;;;;;;;14.25;12.75;;;;;26.08;48.14;100551.72;5076574;28;45474;-77
2022/08/16 09:09:58;;;;;;;;;13.25;12.50;;;;;26.15;47.50;100550.13;5076233;28;55195;-77
2022/08/16 09:12:24;;;;;;;;;15.50;14.25;;;;;26.17;47.67;100549.94;5076630;27;45442;-77
2022/08/16 09:14:49;;;;;;;;;13.75;12.00;;;;;26.17;47.58;100556.16;5076495;27;46327;-77
2022/08/16 09:17:14;;;;;;;;;14.50;13.75;;;;;26.13;47.12;100561.91;5075665;28;67156;-77
2022/08/16 09:19:40;;;;;;;;;14.00;12.50;;;;;26.14;47.94;100556.44;5075966;27;62826;-78
2022/08/16 09:22:07;;;;;;;;;9.50;9.50;;;;;26.30;47.28;100566.47;5076034;27;45646;-77
2022/08/16 09:24:32;;;;;;;;;12.75;12.25;;;;;26.45;47.37;100564.94;5075107;28;45457;-77
2022/08/16 09:26:58;;;;;;;;;12.25;9.25;;;;;26.60;46.12;100567.94;5076400;27;45384;-77
2022/08/16 09:29:23;;;;;;;;;13.00;11.50;;;;;26.74;46.00;100566.53;5076335;28;45327;-77
2022/08/16 09:31:49;;;;;;;;;15.00;13.00;;;;;27.00;45.48;100579.09;5057289;28;45350;-77
2022/08/16 09:34:15;;;;;;;;;12.00;11.00;;;;;27.21;45.40;100568.91;5075192;28;74425;-77
2022/08/16 09:36:40;;;;;;;;;11.75;11.75;;;;;27.33;44.50;100572.19;5074757;28;45861;-77
2022/08/16 09:39:06;;;;;;;;;12.50;12.25;;;;;27.40;44.15;100580.44;5075056;27;45373;-77
2022/08/16 09:41:32;;;;;;;;;12.50;12.00;;;;;27.37;43.76;100580.72;5075551;28;61811;-77
2022/08/16 09:43:58;;;;;;;;;13.75;11.50;;;;;27.40;43.12;100577.75;5074725;27;47018;-77
2022/08/16 09:46:24;;;;;;;;;8.25;8.25;;;;;27.45;42.97;100579.94;5074950;28;45263;-77
2022/08/16 09:48:51;;;;;;;;;13.75;10.50;;;;;27.57;43.42;100574.16;5076281;27;45294;-77
2022/08/16 09:51:17;;;;;;;;;11.50;11.25;;;;;27.69;43.60;100572.06;5075812;27;45379;-77
2022/08/16 09:53:42;;;;;;;;;12.25;10.75;;;;;27.81;43.54;100573.44;5074585;28;74163;-77
2022/08/16 09:56:19;;;;;;;;;12.00;9.50;;;;;27.89;42.52;100582.50;5075815;28;45336;-77
2022/08/16 09:58:44;;;;;;;;;13.75;12.00;;;;;27.85;42.27;100581.97;5057847;28;45318;-77
2022/08/16 10:01:10;;;;;;;;;11.50;11.50;;;;;27.74;42.59;100567.06;5074815;28;70962;-77
2022/08/16 10:03:35;;;;;;;;;12.50;11.00;;;;;27.87;42.58;100576.47;5074870;28;74281;-77
2022/08/16 10:06:01;;;;;;;;;15.50;11.00;;;;;27.92;41.90;100583.06;5075285;27;45348;-78
2022/08/16 10:08:26;;;;;;;;;12.75;12.00;;;;;27.97;42.74;100579.88;5075907;28;45300;-77
2022/08/16 10:13:35;;;;;;;;;11.50;9.75;;;;;28.21;41.41;100583.63;5074614;27;45297;-77
2022/08/16 10:16:01;;;;;;;;;12.75;12.00;;;;;28.39;41.42;100584.34;5073376;28;71983;-77
2022/08/16 10:18:28;;;;;;;;;11.50;9.75;;;;;28.50;40.59;100581.34;5073955;28;45242;-77
2022/08/16 10:20:55;;;;;;;;;11.25;10.00;;;;;28.53;40.66;100580.22;5075918;27;45268;-77
2022/08/16 10:23:20;;;;;;;;;12.75;9.75;;;;;28.61;40.34;100574.03;5075427;27;46609;-77
2022/08/16 10:25:47;;;;;;;;;12.00;11.00;;;;;28.79;40.16;100581.91;5074208;28;45355;-77
2022/08/16 10:28:13;;;;;;;;;13.00;11.25;;;;;28.88;39.67;100575.53;5074599;28;45371;-77
2022/08/16 10:30:43;;;;;;;;;11.50;10.25;;;;;28.94;39.46;100580.25;5074315;28;45425;-77
2022/08/16 10:33:12;;;;;;;;;12.50;9.50;;;;;29.00;38.84;100584.09;5074943;27;46736;-77
2022/08/16 10:35:38;;;;;;;;;10.50;9.50;;;;;29.04;39.07;100588.09;5074193;28;45914;-79
2022/08/16 10:38:04;;;;;;;;;16.00;11.00;;;;;28.89;38.76;100580.72;5074358;28;45517;-77
2022/08/16 10:40:29;;;;;;;;;10.00;10.00;;;;;28.90;39.10;100586.91;5074246;28;45358;-77
2022/08/16 10:42:55;;;;;;;;;13.25;10.25;;;;;28.96;39.22;100580.91;5076131;27;47212;-78
2022/08/16 10:45:21;;;;;;;;;14.75;11.75;;;;;28.91;39.55;100570.69;5078797;27;45361;-77
2022/08/16 10:47:48;;;;;;;;;12.00;10.50;;;;;28.66;39.29;100583.25;5077459;27;45345;-77
2022/08/16 10:50:13;;;;;;;;;13.50;12.50;;;;;28.48;40.33;100578.00;5077578;28;45432;-77
2022/08/16 10:52:39;;;;;;;;;12.75;12.00;;;;;28.39;40.44;100577.16;5077101;28;57950;-77
2022/08/16 10:55:09;;;;;;;;;12.00;11.25;;;;;28.39;40.29;100581.66;5077284;27;45346;-77
2022/08/16 10:57:34;;;;;;;;;14.00;10.75;;;;;28.37;40.82;100576.47;5077652;28;45327;-78
2022/08/16 11:00:00;;;;;;;;;11.00;10.00;;;;;28.28;40.03;100581.97;5078771;28;45503;-77
2022/08/16 11:02:25;;;;;;;;;12.50;12.50;;;;;28.15;40.37;100587.81;5078152;27;46954;-77
2022/08/16 11:04:53;;;;;;;;;14.25;11.00;;;;;28.09;40.75;100588.47;5077388;27;45424;-77
2022/08/16 11:07:18;;;;;;;;;12.00;10.00;;;;;28.07;41.30;100590.47;5078655;27;45369;-77